createdAt,value
2017-08-30T00:02:34.871Z,99.90
2017-08-30T00:05:07.321Z,99.90
2017-08-30T00:07:47.104Z,99.90
2017-08-30T00:10:26.999Z,99.90
2017-08-30T00:13:09.811Z,99.90
2017-08-30T00:15:42.748Z,99.90
2017-08-30T00:18:13.749Z,99.90
2017-08-30T00:20:45.483Z,99.90
2017-08-30T00:23:26.044Z,99.90
2017-08-30T00:29:17.905Z,99.90
2017-08-30T00:31:56.190Z,99.90
2017-08-30T00:34:26.883Z,99.90
2017-08-30T00:36:57.981Z,99.90
2017-08-30T00:39:31.783Z,99.90
2017-08-30T00:44:43.940Z,99.90
2017-08-30T00:47:24.156Z,99.90
2017-08-30T00:49:57.669Z,99.90
2017-08-30T00:52:29.203Z,99.90
2017-08-30T00:55:04.489Z,99.90
2017-08-30T00:57:39.268Z,99.90
2017-08-30T01:00:11.300Z,99.90
2017-08-30T01:02:42.676Z,99.90
2017-08-30T01:05:19.400Z,99.90
2017-08-30T01:08:04.743Z,99.90
2017-08-30T01:10:43.959Z,99.90
2017-08-30T01:13:28.330Z,99.90
2017-08-30T01:16:04.238Z,99.90
2017-08-30T01:18:42.360Z,99.90
2017-08-30T01:21:15.819Z,99.90
2017-08-30T01:23:55.151Z,99.90
2017-08-30T01:26:34.796Z,99.90
2017-08-30T01:29:10.582Z,99.90
2017-08-30T01:31:44.973Z,99.90
2017-08-30T01:34:19.332Z,99.90
2017-08-30T01:36:53.236Z,99.90
2017-08-30T01:42:03.741Z,99.90
2017-08-30T01:44:40.301Z,99.90
2017-08-30T01:47:22.593Z,99.90
2017-08-30T01:50:07.427Z,99.90
2017-08-30T01:52:40.651Z,99.90
2017-08-30T01:55:14.611Z,99.90
2017-08-30T01:57:45.742Z,99.90
2017-08-30T02:00:15.336Z,99.90
2017-08-30T02:02:48.757Z,99.90
2017-08-30T02:05:18.325Z,99.90
2017-08-30T02:07:48.790Z,99.90
2017-08-30T02:10:20.420Z,99.90
2017-08-30T02:12:52.865Z,99.90
2017-08-30T02:15:22.130Z,99.90
2017-08-30T02:17:52.612Z,99.90
2017-08-30T02:20:22.804Z,99.90
2017-08-30T02:22:54.388Z,99.90
2017-08-30T02:25:25.992Z,99.90
2017-08-30T02:27:57.790Z,99.90
2017-08-30T02:30:31.559Z,99.90
2017-08-30T02:33:08.039Z,99.90
2017-08-30T02:35:39.029Z,99.90
2017-08-30T02:38:13.684Z,99.90
2017-08-30T02:40:44.485Z,99.90
2017-08-30T02:43:14.335Z,99.90
2017-08-30T02:45:44.831Z,99.90
2017-08-30T02:48:14.517Z,99.90
2017-08-30T02:50:48.775Z,99.90
2017-08-30T02:53:21.883Z,99.90
2017-08-30T02:55:54.374Z,99.90
2017-08-30T02:58:28.994Z,99.90
2017-08-30T03:01:01.546Z,99.90
2017-08-30T03:03:34.769Z,99.90
2017-08-30T03:06:06.021Z,99.90
2017-08-30T03:08:38.839Z,99.90
2017-08-30T03:11:07.882Z,99.90
2017-08-30T03:13:39.107Z,99.90
2017-08-30T03:16:08.078Z,99.90
2017-08-30T03:18:41.023Z,99.90
2017-08-30T03:21:14.605Z,99.90
2017-08-30T03:23:45.789Z,99.90
2017-08-30T03:26:24.912Z,99.90
2017-08-30T03:28:58.616Z,99.90
2017-08-30T03:31:27.790Z,99.90
2017-08-30T03:33:58.169Z,99.90
2017-08-30T03:36:28.526Z,99.90
2017-08-30T03:38:59.038Z,99.90
2017-08-30T03:41:28.833Z,99.90
2017-08-30T03:44:01.547Z,99.90
2017-08-30T03:46:30.690Z,99.90
2017-08-30T03:49:03.741Z,99.90
2017-08-30T03:51:35.627Z,99.90
2017-08-30T03:54:05.445Z,99.90
2017-08-30T03:56:35.426Z,99.90
2017-08-30T03:59:07.799Z,99.90
2017-08-30T04:01:37.146Z,99.90
2017-08-30T04:04:07.127Z,99.90
2017-08-30T04:06:46.090Z,99.90
2017-08-30T04:09:23.164Z,99.90
2017-08-30T04:11:55.706Z,99.90
2017-08-30T04:14:26.442Z,99.90
2017-08-30T04:16:56.832Z,99.90
2017-08-30T04:19:29.890Z,99.90
2017-08-30T04:22:02.846Z,99.90
2017-08-30T04:24:32.588Z,99.90
2017-08-30T04:27:13.627Z,99.90
2017-08-30T04:29:43.768Z,99.90
2017-08-30T04:32:12.866Z,99.90
2017-08-30T04:34:46.280Z,99.90
2017-08-30T04:37:21.895Z,99.90
2017-08-30T04:39:53.602Z,99.90
2017-08-30T04:42:36.761Z,99.90
2017-08-30T04:45:07.297Z,99.90
2017-08-30T04:47:38.008Z,99.90
2017-08-30T04:50:09.911Z,99.90
2017-08-30T04:52:47.188Z,99.90
2017-08-30T04:55:17.567Z,99.90
2017-08-30T04:57:49.134Z,99.90
2017-08-30T05:00:26.284Z,99.90
2017-08-30T05:03:01.966Z,99.90
2017-08-30T05:05:31.125Z,99.90
2017-08-30T05:08:00.565Z,99.90
2017-08-30T05:10:29.648Z,99.90
2017-08-30T05:13:00.787Z,99.90
2017-08-30T05:15:34.885Z,99.90
2017-08-30T05:18:05.909Z,99.90
2017-08-30T05:20:37.769Z,99.90
2017-08-30T05:23:11.207Z,99.90
2017-08-30T05:25:41.783Z,99.90
2017-08-30T05:28:11.496Z,99.90
2017-08-30T05:30:46.641Z,99.90
2017-08-30T05:33:15.669Z,99.90
2017-08-30T05:35:44.851Z,99.90
2017-08-30T05:38:14.716Z,99.90
2017-08-30T05:40:47.715Z,99.90
2017-08-30T05:43:18.396Z,99.90
2017-08-30T05:45:47.482Z,99.90
2017-08-30T05:48:17.668Z,99.90
2017-08-30T05:50:48.423Z,99.90
2017-08-30T05:53:18.758Z,99.90
2017-08-30T05:55:51.021Z,99.90
2017-08-30T05:58:20.175Z,99.90
2017-08-30T06:00:51.333Z,99.90
2017-08-30T06:03:20.667Z,99.90
2017-08-30T06:05:50.878Z,99.90
2017-08-30T06:08:20.336Z,99.90
2017-08-30T06:10:51.404Z,99.90
2017-08-30T06:13:21.610Z,99.90
2017-08-30T06:15:52.213Z,99.90
2017-08-30T06:18:22.072Z,99.90
2017-08-30T06:20:52.264Z,99.90
2017-08-30T06:23:22.149Z,99.90
2017-08-30T06:25:51.388Z,99.90
2017-08-30T06:28:22.191Z,99.90
2017-08-30T06:30:51.808Z,99.90
2017-08-30T06:33:21.749Z,99.90
2017-08-30T06:35:51.748Z,99.90
2017-08-30T06:38:20.825Z,99.90
2017-08-30T06:40:51.263Z,99.90
2017-08-30T06:43:20.491Z,99.90
2017-08-30T06:45:50.911Z,99.90
2017-08-30T06:48:20.835Z,99.90
2017-08-30T06:50:53.102Z,99.90
2017-08-30T06:53:22.204Z,99.90
2017-08-30T06:55:51.537Z,99.90
2017-08-30T06:58:21.659Z,99.90
2017-08-30T07:00:51.804Z,99.90
2017-08-30T07:03:22.792Z,99.90
2017-08-30T07:05:53.077Z,99.90
2017-08-30T07:08:22.221Z,99.90
2017-08-30T07:10:52.934Z,99.90
2017-08-30T07:13:24.747Z,99.90
2017-08-30T07:15:54.472Z,99.90
2017-08-30T07:18:23.550Z,99.90
2017-08-30T07:21:00.373Z,99.90
2017-08-30T07:23:30.867Z,99.90
2017-08-30T07:25:59.903Z,99.90
2017-08-30T07:28:32.625Z,99.90
2017-08-30T07:31:05.957Z,99.90
2017-08-30T07:33:49.486Z,99.90
2017-08-30T07:36:19.576Z,99.90
2017-08-30T07:38:50.514Z,99.90
2017-08-30T07:41:20.490Z,99.90
2017-08-30T07:46:36.129Z,99.90
2017-08-30T07:49:15.180Z,99.90
2017-08-30T07:51:47.128Z,99.90
2017-08-30T07:54:16.197Z,99.90
2017-08-30T08:02:36.073Z,99.90
2017-08-30T08:05:12.611Z,99.90
2017-08-30T08:07:45.724Z,99.90
2017-08-30T08:10:30.999Z,99.90
2017-08-30T08:33:21.621Z,99.90
2017-08-30T08:38:48.070Z,99.90
2017-08-30T08:41:19.883Z,99.90
2017-08-30T08:43:49.796Z,99.90
2017-08-30T08:46:20.713Z,99.90
2017-08-30T08:48:51.137Z,99.90
2017-08-30T08:54:03.878Z,99.90
2017-08-30T08:56:39.710Z,99.90
2017-08-30T09:13:34.589Z,99.90
2017-08-30T09:16:04.591Z,99.90
2017-08-30T09:18:36.103Z,99.90
2017-08-30T09:21:05.166Z,99.90
2017-08-30T09:23:34.193Z,99.90
2017-08-30T09:26:04.220Z,99.90
2017-08-30T09:28:33.642Z,99.90
2017-08-30T09:34:02.686Z,99.90
2017-08-30T09:36:35.664Z,99.90
2017-08-30T09:39:05.794Z,99.90
2017-08-30T09:41:35.151Z,99.90
2017-08-30T09:44:04.182Z,99.90
2017-08-30T09:46:34.091Z,99.20
2017-08-30T09:49:03.251Z,99.20
2017-08-30T09:51:33.111Z,97.60
2017-08-30T09:54:03.054Z,98.30
2017-08-30T09:56:32.166Z,98.20
2017-08-30T09:59:01.206Z,98.00
2017-08-30T10:01:30.491Z,99.40
2017-08-30T10:03:59.506Z,98.00
2017-08-30T10:35:21.440Z,94.30
2017-08-30T10:37:50.543Z,94.20
2017-08-30T10:40:21.349Z,95.40
2017-08-30T10:42:51.173Z,97.10
2017-08-30T10:45:21.160Z,96.60
2017-08-30T10:47:51.218Z,96.60
2017-08-30T10:50:20.378Z,96.60
2017-08-30T10:52:49.382Z,96.20
2017-08-30T10:55:18.372Z,95.80
2017-08-30T10:57:48.217Z,94.10
2017-08-30T11:00:17.204Z,94.10
2017-08-30T11:08:32.612Z,92.70
2017-08-30T11:11:07.165Z,92.80
2017-08-30T11:13:36.576Z,92.80
2017-08-30T11:16:06.752Z,93.00
2017-08-30T11:18:45.308Z,93.30
2017-08-30T11:21:15.481Z,93.80
2017-08-30T11:23:44.572Z,93.80
2017-08-30T11:26:13.609Z,95.20
2017-08-30T11:28:42.783Z,95.80
2017-08-30T11:31:12.628Z,95.00
2017-08-30T11:33:41.680Z,95.00
2017-08-30T11:36:10.722Z,95.50
2017-08-30T11:38:40.508Z,94.40
2017-08-30T11:41:09.565Z,94.40
2017-08-30T11:43:38.580Z,94.60
2017-08-30T11:46:07.621Z,95.40
2017-08-30T11:48:36.701Z,94.60
2017-08-30T11:51:05.744Z,94.50
2017-08-30T11:53:34.775Z,96.30
2017-08-30T11:56:04.596Z,93.60
2017-08-30T11:58:33.711Z,93.50
2017-08-30T12:01:02.819Z,93.70
2017-08-30T12:03:31.878Z,95.10
2017-08-30T12:06:01.662Z,94.50
2017-08-30T12:08:31.048Z,94.60
2017-08-30T12:11:00.087Z,94.10
2017-08-30T12:13:29.878Z,95.10
2017-08-30T12:15:58.898Z,95.00
2017-08-30T12:18:27.903Z,95.40
2017-08-30T12:20:56.917Z,97.30
2017-08-30T12:23:25.955Z,94.60
2017-08-30T12:25:54.967Z,95.50
2017-08-30T12:28:24.086Z,96.10
2017-08-30T12:30:53.222Z,93.40
2017-08-30T12:33:22.290Z,94.40
2017-08-30T12:35:51.342Z,93.60
2017-08-30T12:40:26.587Z,96.40
2017-08-30T12:42:56.356Z,94.10
2017-08-30T12:45:25.451Z,94.00
2017-08-30T12:47:55.293Z,93.80
2017-08-30T12:50:24.234Z,93.80
2017-08-30T12:52:53.497Z,94.20
2017-08-30T12:55:22.649Z,94.30
2017-08-30T12:57:51.680Z,94.60
2017-08-30T13:00:20.673Z,92.70
2017-08-30T13:02:49.928Z,91.90
2017-08-30T13:05:18.877Z,92.80
2017-08-30T13:07:48.685Z,92.10
2017-08-30T13:10:18.455Z,94.30
2017-08-30T13:12:47.485Z,94.30
2017-08-30T13:15:16.472Z,93.40
2017-08-30T13:17:46.191Z,92.50
2017-08-30T13:20:15.979Z,94.40
2017-08-30T13:22:45.004Z,94.50
2017-08-30T13:25:15.172Z,95.10
2017-08-30T13:27:44.265Z,95.10
2017-08-30T13:30:13.368Z,94.40
2017-08-30T13:32:43.182Z,95.30
2017-08-30T13:35:13.121Z,96.20
2017-08-30T13:37:43.047Z,96.50
2017-08-30T13:40:12.203Z,96.40
2017-08-30T13:42:41.283Z,96.20
2017-08-30T13:45:10.368Z,96.20
2017-08-30T13:47:39.362Z,96.20
2017-08-30T13:50:09.161Z,99.10
2017-08-30T13:52:38.156Z,99.10
2017-08-30T13:55:07.931Z,95.30
2017-08-30T13:57:37.739Z,93.80
2017-08-30T14:00:06.708Z,93.90
2017-08-30T14:02:35.836Z,93.80
2017-08-30T14:06:07.360Z,94.70
2017-08-30T14:08:36.389Z,94.20
2017-08-30T14:11:06.486Z,93.80
2017-08-30T14:13:35.498Z,93.80
2017-08-30T14:16:04.486Z,94.20
2017-08-30T14:18:33.681Z,94.60
2017-08-30T14:21:02.880Z,93.20
2017-08-30T14:23:31.964Z,95.60
2017-08-30T14:26:01.764Z,94.80
2017-08-30T14:28:30.803Z,94.80
2017-08-30T14:31:00.615Z,95.50
2017-08-30T14:33:30.417Z,95.70
2017-08-30T14:35:59.528Z,95.70
2017-08-30T14:38:29.359Z,97.20
2017-08-30T14:40:58.571Z,97.20
2017-08-30T14:43:27.640Z,96.10
2017-08-30T14:45:57.410Z,96.50
2017-08-30T14:48:26.456Z,96.50
2017-08-30T14:50:55.459Z,95.30
2017-08-30T14:53:24.579Z,96.50
2017-08-30T14:55:54.016Z,96.10
2017-08-30T14:58:23.082Z,97.20
2017-08-30T15:00:52.089Z,98.60
2017-08-30T15:03:21.117Z,98.20
2017-08-30T15:05:53.863Z,97.20
2017-08-30T15:08:23.928Z,97.90
2017-08-30T15:10:52.951Z,97.90
2017-08-30T15:13:22.035Z,98.20
2017-08-30T15:15:51.155Z,98.20
2017-08-30T15:18:20.298Z,98.80
2017-08-30T15:20:49.286Z,99.30
2017-08-30T15:23:19.086Z,98.90
2017-08-30T15:25:48.102Z,98.90
2017-08-30T15:28:17.150Z,99.50
2017-08-30T15:30:46.203Z,99.40
2017-08-30T15:33:15.296Z,99.60
2017-08-30T15:35:44.726Z,99.90
2017-08-30T15:38:13.819Z,99.90
2017-08-30T15:40:42.899Z,99.90
2017-08-30T15:43:12.014Z,99.90
2017-08-30T15:45:41.145Z,99.90
2017-08-30T15:48:10.223Z,99.90
2017-08-30T15:50:39.262Z,99.90
2017-08-30T15:53:09.398Z,99.90
2017-08-30T15:55:38.613Z,99.90
2017-08-30T15:58:07.821Z,99.90
2017-08-30T16:00:36.897Z,99.90
2017-08-30T16:03:05.963Z,99.90
2017-08-30T16:05:35.780Z,99.90
2017-08-30T16:08:04.831Z,99.90
2017-08-30T16:10:34.749Z,99.90
2017-08-30T16:13:03.903Z,99.90
2017-08-30T16:15:33.104Z,99.90
2017-08-30T16:18:02.141Z,99.90
2017-08-30T16:20:31.136Z,99.90
2017-08-30T16:23:00.359Z,99.90
2017-08-30T16:25:30.164Z,99.90
2017-08-30T16:27:59.200Z,99.90
2017-08-30T16:30:28.234Z,99.90
2017-08-30T16:32:57.478Z,99.90
2017-08-30T16:35:26.618Z,99.90
2017-08-30T16:37:55.995Z,99.90
2017-08-30T16:40:25.092Z,99.90
2017-08-30T16:42:54.207Z,99.90
2017-08-30T16:45:23.482Z,99.90
2017-08-30T16:47:52.546Z,99.90
2017-08-30T16:50:21.627Z,99.90
2017-08-30T16:52:51.448Z,99.90
2017-08-30T16:55:20.503Z,99.90
2017-08-30T16:57:49.628Z,99.90
2017-08-30T17:00:23.480Z,99.90
2017-08-30T17:02:52.473Z,99.90
2017-08-30T17:05:21.491Z,99.90
2017-08-30T17:07:51.314Z,99.90
2017-08-30T17:10:24.461Z,99.90
2017-08-30T17:12:53.624Z,99.90
2017-08-30T17:15:22.708Z,99.90
2017-08-30T17:17:51.835Z,99.90
2017-08-30T17:20:20.895Z,99.90
2017-08-30T17:22:50.018Z,99.90
2017-08-30T17:25:19.852Z,99.90
2017-08-30T17:27:48.961Z,99.90
2017-08-30T17:30:18.757Z,99.90
2017-08-30T17:32:47.868Z,99.90
2017-08-30T17:35:16.904Z,99.90
2017-08-30T17:37:45.986Z,99.90
2017-08-30T17:40:14.987Z,99.90
2017-08-30T17:42:44.106Z,99.90
2017-08-30T17:45:13.909Z,99.90
2017-08-30T17:47:44.990Z,99.90
2017-08-30T17:50:14.152Z,99.90
2017-08-30T17:52:43.973Z,99.90
2017-08-30T17:55:13.802Z,99.90
2017-08-30T17:57:42.887Z,99.90
2017-08-30T18:00:12.634Z,99.90
2017-08-30T18:02:41.672Z,99.90
2017-08-30T18:05:11.488Z,99.90
2017-08-30T18:07:41.421Z,99.90
2017-08-30T18:10:10.702Z,99.90
2017-08-30T18:12:40.495Z,99.90
2017-08-30T18:15:09.501Z,99.90
2017-08-30T18:17:38.559Z,99.90
2017-08-30T18:20:07.610Z,99.90
2017-08-30T18:22:37.879Z,99.90
2017-08-30T18:25:06.986Z,99.90
2017-08-30T18:27:36.071Z,99.90
2017-08-30T18:30:05.142Z,99.90
2017-08-30T18:32:35.060Z,99.90
2017-08-30T18:35:04.257Z,99.90
2017-08-30T18:37:34.187Z,99.90
2017-08-30T18:40:03.175Z,99.90
2017-08-30T18:42:32.175Z,99.90
2017-08-30T18:45:01.236Z,99.90
2017-08-30T18:47:31.045Z,99.90
2017-08-30T18:50:00.927Z,99.90
2017-08-30T18:52:29.983Z,99.90
2017-08-30T18:54:59.818Z,99.90
2017-08-30T18:57:28.907Z,99.90
2017-08-30T18:59:58.706Z,99.90
2017-08-30T19:02:27.741Z,99.90
2017-08-30T19:04:56.817Z,99.90
2017-08-30T19:07:25.860Z,99.90
2017-08-30T19:09:54.882Z,99.90
2017-08-30T19:12:23.977Z,99.90
2017-08-30T19:14:53.162Z,99.90
2017-08-30T19:17:22.955Z,99.90
2017-08-30T19:19:51.988Z,99.90
2017-08-30T19:22:21.034Z,99.90
2017-08-30T19:24:50.907Z,99.90
2017-08-30T19:27:19.927Z,99.90
2017-08-30T19:29:49.014Z,99.90
2017-08-30T19:32:18.120Z,99.90
2017-08-30T19:34:47.983Z,99.90
2017-08-30T19:37:17.264Z,99.90
2017-08-30T19:39:48.864Z,99.90
2017-08-30T19:42:18.127Z,99.90
2017-08-30T19:47:22.927Z,99.90
2017-08-30T19:49:52.009Z,99.90
2017-08-30T19:52:21.166Z,99.90
2017-08-30T19:54:50.818Z,99.90
2017-08-30T19:57:19.944Z,99.90
2017-08-30T19:59:49.840Z,99.90
2017-08-30T20:02:18.857Z,99.90
2017-08-30T20:04:48.122Z,99.90
2017-08-30T20:07:17.138Z,99.90
2017-08-30T20:09:46.886Z,99.90
2017-08-30T20:12:16.042Z,99.90
2017-08-30T20:14:45.954Z,99.90
2017-08-30T20:17:15.857Z,99.90
2017-08-30T20:19:46.183Z,99.90
2017-08-30T20:22:20.185Z,99.90
2017-08-30T20:24:49.209Z,99.90
2017-08-30T20:27:18.944Z,99.90
2017-08-30T20:29:48.180Z,99.90
2017-08-30T20:32:19.796Z,99.90
2017-08-30T20:34:48.785Z,99.90
2017-08-30T20:37:17.828Z,99.90
2017-08-30T20:39:46.849Z,99.90
2017-08-30T20:42:16.710Z,99.90
2017-08-30T20:44:45.811Z,99.90
2017-08-30T20:47:14.877Z,99.90
2017-08-30T20:49:43.897Z,99.90
2017-08-30T20:52:12.886Z,99.90
2017-08-30T20:54:43.083Z,99.90
2017-08-30T20:57:12.118Z,99.90
2017-08-30T20:59:41.079Z,99.90
2017-08-30T21:02:10.079Z,99.90
2017-08-30T21:04:39.326Z,99.90
2017-08-30T21:07:09.134Z,99.90
2017-08-30T21:09:38.295Z,99.90
2017-08-30T21:12:07.327Z,99.90
2017-08-30T21:14:36.429Z,99.90
2017-08-30T21:17:06.895Z,99.90
2017-08-30T21:19:36.045Z,99.90
2017-08-30T21:22:05.041Z,99.90
2017-08-30T21:24:34.061Z,99.90
2017-08-30T21:27:03.216Z,99.90
2017-08-30T21:29:32.262Z,99.90
2017-08-30T21:32:01.255Z,99.90
2017-08-30T21:34:30.274Z,99.90
2017-08-30T21:36:59.251Z,99.90
2017-08-30T21:39:28.252Z,99.90
2017-08-30T21:41:57.294Z,99.90
2017-08-30T21:44:26.353Z,99.90
2017-08-30T21:46:55.390Z,99.90
2017-08-30T21:49:24.421Z,99.90
2017-08-30T21:51:53.448Z,99.90
2017-08-30T21:54:22.425Z,99.90
2017-08-30T21:56:51.407Z,99.90
2017-08-30T21:59:20.386Z,99.90
2017-08-30T22:01:49.373Z,99.90
2017-08-30T22:04:18.619Z,99.90
2017-08-30T22:06:47.673Z,99.90
2017-08-30T22:09:16.629Z,99.90
2017-08-30T22:11:45.859Z,99.90
2017-08-30T22:14:14.811Z,99.90
2017-08-30T22:16:44.611Z,99.90
2017-08-30T22:19:13.631Z,99.90
2017-08-30T22:21:43.361Z,99.90
2017-08-30T22:24:12.347Z,99.90
2017-08-30T22:26:41.382Z,99.90
2017-08-30T22:29:10.926Z,99.90
2017-08-30T22:31:39.902Z,99.90
2017-08-30T22:34:09.078Z,99.90
2017-08-30T22:36:38.087Z,99.90
2017-08-30T22:39:07.081Z,99.90
2017-08-30T22:41:36.138Z,99.90
2017-08-30T22:44:05.146Z,99.90
2017-08-30T22:46:34.148Z,99.90
2017-08-30T22:49:03.153Z,99.90
2017-08-30T22:51:32.185Z,99.90
2017-08-30T22:54:01.991Z,99.90
2017-08-30T22:56:31.734Z,99.90
2017-08-30T22:59:01.071Z,99.90
2017-08-30T23:01:30.032Z,99.90
2017-08-30T23:03:59.003Z,99.90
2017-08-30T23:06:28.030Z,99.90
2017-08-30T23:08:57.087Z,99.90
2017-08-30T23:11:26.088Z,99.90
2017-08-30T23:13:55.116Z,99.90
2017-08-30T23:16:24.111Z,99.90
2017-08-30T23:18:53.054Z,99.90
2017-08-30T23:21:22.049Z,99.90
2017-08-30T23:23:51.061Z,99.90
2017-08-30T23:26:20.029Z,99.90
2017-08-30T23:28:49.414Z,99.90
2017-08-30T23:31:18.404Z,99.90
2017-08-30T23:33:47.427Z,99.90
2017-08-30T23:36:16.466Z,99.90
2017-08-30T23:38:45.457Z,99.90
2017-08-30T23:41:14.856Z,99.90
2017-08-30T23:43:43.825Z,99.90
2017-08-30T23:46:12.811Z,99.90
2017-08-30T23:48:41.758Z,99.90
2017-08-30T23:51:10.859Z,99.90
2017-08-30T23:53:39.907Z,99.90
2017-08-30T23:56:08.865Z,99.90
2017-08-30T23:58:37.873Z,99.90
